createdAt,value
2018-03-08T00:00:45.722Z,8.10
2018-03-08T00:03:26.520Z,7.80
2018-03-08T00:05:54.083Z,7.00
2018-03-08T00:08:21.586Z,7.53
2018-03-08T00:10:50.083Z,7.40
2018-03-08T00:13:20.994Z,7.17
2018-03-08T00:15:49.572Z,6.70
2018-03-08T00:18:17.693Z,7.50
2018-03-08T00:20:45.525Z,7.47
2018-03-08T00:23:14.637Z,6.73
2018-03-08T00:25:42.292Z,7.23
2018-03-08T00:28:09.745Z,5.80
2018-03-08T00:30:37.611Z,5.83
2018-03-08T00:33:05.053Z,5.97
2018-03-08T00:35:32.510Z,5.70
2018-03-08T00:38:01.019Z,5.90
2018-03-08T00:40:28.753Z,5.43
2018-03-08T00:42:57.228Z,6.93
2018-03-08T00:45:24.688Z,6.07
2018-03-08T00:50:24.099Z,5.43
2018-03-08T00:52:51.586Z,6.10
2018-03-08T00:55:19.027Z,5.70
2018-03-08T00:57:46.508Z,5.97
2018-03-08T01:00:14.987Z,10.60
2018-03-08T01:02:42.426Z,7.37
2018-03-08T01:05:09.904Z,6.47
2018-03-08T01:07:37.386Z,7.17
2018-03-08T01:10:04.848Z,7.20
2018-03-08T01:12:32.319Z,7.40
2018-03-08T01:14:59.754Z,7.90
2018-03-08T01:17:27.189Z,7.83
2018-03-08T01:19:54.688Z,6.47
2018-03-08T01:22:22.171Z,5.70
2018-03-08T01:24:49.656Z,10.00
2018-03-08T01:27:17.119Z,5.57
2018-03-08T01:29:44.577Z,5.43
2018-03-08T01:32:12.071Z,5.73
2018-03-08T01:34:39.568Z,5.93
2018-03-08T01:37:07.028Z,7.03
2018-03-08T01:39:34.503Z,6.90
2018-03-08T01:42:01.951Z,7.07
2018-03-08T01:44:29.399Z,5.90
2018-03-08T01:46:56.857Z,6.70
2018-03-08T01:49:24.312Z,6.80
2018-03-08T01:52:03.568Z,6.73
2018-03-08T01:54:31.068Z,5.83
2018-03-08T01:56:58.558Z,6.60
2018-03-08T01:59:26.049Z,6.70
2018-03-08T02:01:53.509Z,5.90
2018-03-08T02:04:21.507Z,5.40
2018-03-08T02:06:48.968Z,4.43
2018-03-08T02:09:16.422Z,5.40
2018-03-08T02:11:43.932Z,5.07
2018-03-08T02:14:11.385Z,4.70
2018-03-08T02:16:38.876Z,5.30
2018-03-08T02:19:06.309Z,5.77
2018-03-08T02:21:33.742Z,4.27
2018-03-08T02:24:01.237Z,4.23
2018-03-08T02:26:28.720Z,5.97
2018-03-08T02:28:56.190Z,5.53
2018-03-08T02:31:23.643Z,4.40
2018-03-08T02:33:51.118Z,5.33
2018-03-08T02:36:18.580Z,4.60
2018-03-08T02:38:46.090Z,4.10
2018-03-08T02:41:13.548Z,4.33
2018-03-08T02:43:41.009Z,3.83
2018-03-08T02:46:08.516Z,3.77
2018-03-08T02:48:35.973Z,5.87
2018-03-08T02:51:03.422Z,3.40
2018-03-08T02:53:30.953Z,3.23
2018-03-08T02:55:58.396Z,3.77
2018-03-08T02:58:25.872Z,4.33
2018-03-08T03:00:53.321Z,2.70
2018-03-08T03:03:21.747Z,3.37
2018-03-08T03:05:49.201Z,2.77
2018-03-08T03:08:16.681Z,2.80
2018-03-08T03:10:44.143Z,5.03
2018-03-08T03:13:11.652Z,3.50
2018-03-08T03:15:39.120Z,3.30
2018-03-08T03:18:06.570Z,3.53
2018-03-08T03:20:34.239Z,2.67
2018-03-08T03:23:01.712Z,3.20
2018-03-08T03:25:29.171Z,2.73
2018-03-08T03:27:56.639Z,3.43
2018-03-08T03:30:24.080Z,2.60
2018-03-08T03:32:52.174Z,6.10
2018-03-08T03:35:19.633Z,2.03
2018-03-08T03:37:47.066Z,3.43
2018-03-08T03:40:14.556Z,2.37
2018-03-08T03:42:42.013Z,2.03
2018-03-08T03:45:09.451Z,1.80
2018-03-08T03:47:36.907Z,3.13
2018-03-08T03:50:04.825Z,2.13
2018-03-08T03:52:32.625Z,1.80
2018-03-08T03:55:00.077Z,2.00
2018-03-08T03:57:27.531Z,1.70
2018-03-08T03:59:55.020Z,2.20
2018-03-08T04:02:22.460Z,2.10
2018-03-08T04:04:49.916Z,1.83
2018-03-08T04:07:17.374Z,2.63
2018-03-08T04:09:44.830Z,2.23
2018-03-08T04:12:13.553Z,2.40
2018-03-08T04:14:41.020Z,2.30
2018-03-08T04:17:09.494Z,2.70
2018-03-08T04:19:37.687Z,2.83
2018-03-08T04:22:05.146Z,2.33
2018-03-08T04:24:32.587Z,2.67
2018-03-08T04:27:00.037Z,2.37
2018-03-08T04:29:27.482Z,2.70
2018-03-08T04:31:54.914Z,2.23
2018-03-08T04:34:22.362Z,3.37
2018-03-08T04:36:49.815Z,3.07
2018-03-08T04:39:17.391Z,2.80
2018-03-08T04:41:44.832Z,2.90
2018-03-08T04:44:12.272Z,4.00
2018-03-08T04:46:39.734Z,4.13
2018-03-08T04:49:07.182Z,3.03
2018-03-08T04:51:34.611Z,3.30
2018-03-08T04:54:02.275Z,2.40
2018-03-08T04:56:30.577Z,2.53
2018-03-08T04:58:59.412Z,3.33
2018-03-08T05:01:26.877Z,3.20
2018-03-08T05:03:54.331Z,3.20
2018-03-08T05:06:21.755Z,3.13
2018-03-08T05:08:49.211Z,2.77
2018-03-08T05:11:16.672Z,3.57
2018-03-08T05:13:50.054Z,3.57
2018-03-08T05:16:17.546Z,3.57
2018-03-08T05:18:45.143Z,3.87
2018-03-08T05:21:12.624Z,3.80
2018-03-08T05:23:40.103Z,5.43
2018-03-08T05:26:08.388Z,5.13
2018-03-08T05:28:36.142Z,4.77
2018-03-08T05:31:03.618Z,4.67
2018-03-08T05:33:31.095Z,4.43
2018-03-08T05:35:58.607Z,7.40
2018-03-08T05:38:26.044Z,4.30
2018-03-08T05:40:53.491Z,7.80
2018-03-08T05:43:20.951Z,5.30
2018-03-08T05:45:48.441Z,4.90
2018-03-08T05:48:15.891Z,5.10
2018-03-08T05:50:44.792Z,5.10
2018-03-08T05:53:13.132Z,4.80
2018-03-08T05:55:40.695Z,4.43
2018-03-08T05:58:08.722Z,5.20
2018-03-08T06:00:36.197Z,5.00
2018-03-08T06:03:03.670Z,4.30
2018-03-08T06:05:31.116Z,4.53
2018-03-08T06:07:58.580Z,5.63
2018-03-08T06:10:26.047Z,4.60
2018-03-08T06:12:54.408Z,3.70
2018-03-08T06:15:21.867Z,3.50
2018-03-08T06:17:49.302Z,3.53
2018-03-08T06:20:16.788Z,3.70
2018-03-08T06:22:44.280Z,3.40
2018-03-08T06:25:13.130Z,3.20
2018-03-08T06:27:40.590Z,3.43
2018-03-08T06:30:08.048Z,3.67
2018-03-08T06:32:35.981Z,3.20
2018-03-08T06:35:04.197Z,6.63
2018-03-08T06:37:31.667Z,2.97
2018-03-08T06:39:59.154Z,2.83
2018-03-08T06:42:28.175Z,3.53
2018-03-08T06:44:55.653Z,2.97
2018-03-08T06:47:23.108Z,5.93
2018-03-08T06:49:50.563Z,3.60
2018-03-08T06:52:18.108Z,4.30
2018-03-08T06:54:45.557Z,3.70
2018-03-08T06:57:13.010Z,3.73
2018-03-08T06:59:40.473Z,6.07
2018-03-08T07:02:07.912Z,4.23
2018-03-08T07:04:35.362Z,4.50
2018-03-08T07:07:02.814Z,3.30
2018-03-08T07:09:30.256Z,3.90
2018-03-08T07:11:57.711Z,5.70
2018-03-08T07:14:25.199Z,3.43
2018-03-08T07:16:52.732Z,4.00
2018-03-08T07:19:20.164Z,3.43
2018-03-08T07:21:47.627Z,3.73
2018-03-08T07:24:15.078Z,4.70
2018-03-08T07:26:42.515Z,4.23
2018-03-08T07:29:10.009Z,4.60
2018-03-08T07:31:37.483Z,4.00
2018-03-08T07:34:04.931Z,4.50
2018-03-08T07:36:32.443Z,4.40
2018-03-08T07:38:59.884Z,6.37
2018-03-08T07:54:22.535Z,4.50
2018-03-08T07:56:50.038Z,5.40
2018-03-08T07:59:17.532Z,6.20
2018-03-08T08:01:44.990Z,4.40
2018-03-08T08:04:24.269Z,4.60
2018-03-08T08:09:54.806Z,4.60
2018-03-08T08:12:22.314Z,5.53
2018-03-08T08:14:49.766Z,7.03
2018-03-08T08:17:17.217Z,4.00
2018-03-08T08:19:44.667Z,4.70
2018-03-08T08:22:12.148Z,5.23
2018-03-08T08:24:39.670Z,4.60
2018-03-08T08:27:07.108Z,5.93
2018-03-08T08:29:34.593Z,3.70
2018-03-08T08:32:02.084Z,4.13
2018-03-08T08:34:29.723Z,4.50
2018-03-08T08:36:57.199Z,4.97
2018-03-08T08:39:24.674Z,5.20
2018-03-08T08:41:52.122Z,5.40
2018-03-08T08:44:19.623Z,4.40
2018-03-08T08:46:47.097Z,4.20
2018-03-08T08:49:14.567Z,4.37
2018-03-08T08:51:42.030Z,4.90
2018-03-08T08:54:09.584Z,4.07
2018-03-08T08:56:37.160Z,7.30
2018-03-08T08:59:04.608Z,4.33
2018-03-08T09:01:32.047Z,4.03
2018-03-08T09:03:59.497Z,3.90
2018-03-08T09:06:27.056Z,4.60
2018-03-08T09:08:54.517Z,4.47
2018-03-08T09:11:22.075Z,4.43
2018-03-08T09:13:49.536Z,4.60
2018-03-08T09:16:17.023Z,3.60
2018-03-08T09:18:45.624Z,4.73
2018-03-08T09:21:13.276Z,3.77
2018-03-08T09:23:44.938Z,4.30
2018-03-08T09:26:26.129Z,3.90
2018-03-08T09:28:55.868Z,3.70
2018-03-08T09:31:23.767Z,3.20
2018-03-08T09:33:51.616Z,2.30
2018-03-08T09:36:20.947Z,3.10
2018-03-08T09:43:56.663Z,2.40
2018-03-08T09:46:25.956Z,3.00
2018-03-08T09:48:54.992Z,3.20
2018-03-08T09:54:00.901Z,2.20
2018-03-08T10:01:51.799Z,2.47
2018-03-08T10:06:54.821Z,4.27
2018-03-08T10:11:57.560Z,3.37
2018-03-08T10:17:12.145Z,3.47
2018-03-08T10:19:41.370Z,3.77
2018-03-08T10:29:54.628Z,3.67
2018-03-08T10:32:23.892Z,3.63
2018-03-08T10:34:51.957Z,3.30
2018-03-08T10:50:05.663Z,6.60
2018-03-08T10:52:34.932Z,5.23
2018-03-08T10:55:02.797Z,3.17
2018-03-08T10:57:34.476Z,2.93
2018-03-08T11:02:46.263Z,2.93
2018-03-08T11:05:13.991Z,2.60
2018-03-08T11:07:43.675Z,2.60
2018-03-08T11:12:45.974Z,2.63
2018-03-08T11:15:15.815Z,3.03
2018-03-08T11:20:17.728Z,6.10
2018-03-08T11:25:23.962Z,4.30
2018-03-08T11:30:25.630Z,3.10
2018-03-08T11:32:53.135Z,4.80
2018-03-08T11:35:20.676Z,2.60
2018-03-08T11:37:48.186Z,3.17
2018-03-08T11:40:15.940Z,6.13
2018-03-08T11:42:43.846Z,3.33
2018-03-08T11:45:11.355Z,2.70
2018-03-08T11:47:38.860Z,9.90
2018-03-08T11:50:06.368Z,3.30
2018-03-08T11:52:33.836Z,3.13
2018-03-08T11:55:01.374Z,3.03
2018-03-08T11:57:28.896Z,3.33
2018-03-08T11:59:56.454Z,2.70
2018-03-08T12:02:23.949Z,3.33
2018-03-08T12:04:51.437Z,3.00
2018-03-08T12:07:18.962Z,4.10
2018-03-08T12:09:46.547Z,2.80
2018-03-08T12:12:14.092Z,3.37
2018-03-08T12:14:41.649Z,2.87
2018-03-08T12:17:09.183Z,2.60
2018-03-08T12:19:36.696Z,3.63
2018-03-08T12:22:04.171Z,4.53
2018-03-08T12:24:31.664Z,3.20
2018-03-08T12:26:59.512Z,2.83
2018-03-08T12:29:27.024Z,3.10
2018-03-08T12:31:54.541Z,2.90
2018-03-08T12:34:23.017Z,2.80
2018-03-08T12:36:50.533Z,4.80
2018-03-08T12:39:18.176Z,2.97
2018-03-08T12:41:46.121Z,4.27
2018-03-08T12:44:14.041Z,2.43
2018-03-08T12:46:41.596Z,2.50
2018-03-08T12:49:09.109Z,2.80
2018-03-08T12:51:36.802Z,3.00
2018-03-08T12:54:04.944Z,2.90
2018-03-08T12:56:33.159Z,4.27
2018-03-08T12:59:00.802Z,2.70
2018-03-08T13:01:28.756Z,2.63
2018-03-08T13:03:56.520Z,3.33
2018-03-08T13:06:24.619Z,4.20
2018-03-08T13:08:52.210Z,4.13
2018-03-08T13:11:20.371Z,2.60
2018-03-08T13:13:47.922Z,3.20
2018-03-08T13:16:15.752Z,2.60
2018-03-08T13:18:44.500Z,9.83
2018-03-08T13:21:12.057Z,2.47
2018-03-08T13:23:39.718Z,2.80
2018-03-08T13:26:07.303Z,2.83
2018-03-08T13:28:34.875Z,3.03
2018-03-08T13:31:02.503Z,3.53
2018-03-08T13:33:30.032Z,3.43
2018-03-08T13:35:57.596Z,3.30
2018-03-08T13:38:25.229Z,1.87
2018-03-08T13:40:52.848Z,2.30
2018-03-08T13:43:20.699Z,2.60
2018-03-08T13:45:48.372Z,2.83
2018-03-08T13:48:16.207Z,2.47
2018-03-08T13:50:44.159Z,2.27
2018-03-08T13:53:11.645Z,2.20
2018-03-08T13:55:39.704Z,2.30
2018-03-08T13:58:07.291Z,2.37
2018-03-08T14:00:34.832Z,3.10
2018-03-08T14:03:06.385Z,1.93
2018-03-08T14:05:34.602Z,3.67
2018-03-08T14:08:02.178Z,2.10
2018-03-08T14:10:30.446Z,2.50
2018-03-08T14:12:58.032Z,2.20
2018-03-08T14:15:25.701Z,2.23
2018-03-08T14:17:53.853Z,2.43
2018-03-08T14:20:21.362Z,4.10
2018-03-08T14:22:48.998Z,2.07
2018-03-08T14:25:16.639Z,3.10
2018-03-08T14:27:44.306Z,2.43
2018-03-08T14:30:11.781Z,2.30
2018-03-08T14:32:39.396Z,1.90
2018-03-08T14:35:07.255Z,8.77
2018-03-08T14:37:35.212Z,4.63
2018-03-08T14:40:02.787Z,1.93
2018-03-08T14:42:30.574Z,2.00
2018-03-08T14:44:58.236Z,1.67
2018-03-08T14:47:25.815Z,1.90
2018-03-08T14:49:53.326Z,2.43
2018-03-08T14:52:20.767Z,2.00
2018-03-08T14:54:48.248Z,2.80
2018-03-08T14:57:16.326Z,2.43
2018-03-08T14:59:43.898Z,2.10
2018-03-08T15:02:11.567Z,1.90
2018-03-08T15:04:39.038Z,2.13
2018-03-08T15:07:06.515Z,3.67
2018-03-08T15:09:33.989Z,2.53
2018-03-08T15:12:01.506Z,2.80
2018-03-08T15:14:29.129Z,2.60
2018-03-08T15:16:56.644Z,6.50
2018-03-08T15:19:24.109Z,2.90
2018-03-08T15:21:51.587Z,2.00
2018-03-08T15:24:19.093Z,1.77
2018-03-08T15:26:46.561Z,1.93
2018-03-08T15:29:14.080Z,3.53
2018-03-08T15:31:41.567Z,2.00
2018-03-08T15:34:09.111Z,2.27
2018-03-08T15:36:36.637Z,1.80
2018-03-08T15:39:04.244Z,2.77
2018-03-08T15:41:31.738Z,5.50
2018-03-08T15:43:59.444Z,2.00
2018-03-08T15:46:27.460Z,1.90
2018-03-08T15:48:54.984Z,3.63
2018-03-08T15:51:22.533Z,2.50
2018-03-08T15:53:50.009Z,1.90
2018-03-08T15:56:17.503Z,2.07
2018-03-08T15:58:45.008Z,2.23
2018-03-08T16:01:12.500Z,2.00
2018-03-08T16:03:40.029Z,2.30
2018-03-08T16:06:07.504Z,2.00
2018-03-08T16:09:06.606Z,2.47
2018-03-08T16:11:34.101Z,2.83
2018-03-08T16:14:01.632Z,4.27
2018-03-08T16:16:29.878Z,2.53
2018-03-08T16:18:57.380Z,3.30
2018-03-08T16:21:24.933Z,4.27
2018-03-08T16:23:52.407Z,6.00
2018-03-08T16:26:19.868Z,3.30
2018-03-08T16:28:47.412Z,4.10
2018-03-08T16:31:14.974Z,2.47
2018-03-08T16:33:42.418Z,7.50
2018-03-08T16:36:09.881Z,2.60
2018-03-08T16:38:37.376Z,2.67
2018-03-08T16:41:04.834Z,4.33
2018-03-08T16:43:32.359Z,2.47
2018-03-08T16:45:59.846Z,2.50
2018-03-08T16:48:29.019Z,3.10
2018-03-08T16:50:56.476Z,3.67
2018-03-08T16:53:23.962Z,3.20
2018-03-08T16:55:51.428Z,2.73
2018-03-08T16:58:18.989Z,2.67
2018-03-08T17:00:46.585Z,2.80
2018-03-08T17:03:14.283Z,3.27
2018-03-08T17:05:41.824Z,3.20
2018-03-08T17:08:09.310Z,8.60
2018-03-08T17:10:36.818Z,3.23
2018-03-08T17:13:04.398Z,3.30
2018-03-08T17:15:31.885Z,3.50
2018-03-08T17:17:59.364Z,3.20
2018-03-08T17:20:26.844Z,4.47
2018-03-08T17:22:54.305Z,4.67
2018-03-08T17:25:21.811Z,5.30
2018-03-08T17:27:49.357Z,2.80
2018-03-08T17:30:16.824Z,4.17
2018-03-08T17:32:44.315Z,7.37
2018-03-08T17:35:13.787Z,5.20
2018-03-08T17:37:41.253Z,8.82
2018-03-08T17:40:08.743Z,6.87
2018-03-08T17:42:36.265Z,6.57
2018-03-08T17:47:37.595Z,5.30
2018-03-08T17:50:05.079Z,16.27
2018-03-08T17:52:32.622Z,7.73
2018-03-08T17:55:00.229Z,26.80
2018-03-08T17:57:27.766Z,9.37
2018-03-08T17:59:55.282Z,19.93
2018-03-08T18:02:22.768Z,6.60
2018-03-08T18:04:50.327Z,13.07
2018-03-08T18:07:17.958Z,5.00
2018-03-08T18:09:45.731Z,6.53
2018-03-08T18:12:13.315Z,4.40
2018-03-08T18:14:40.982Z,5.87
2018-03-08T18:17:08.515Z,7.10
2018-03-08T18:19:36.054Z,4.93
2018-03-08T18:22:03.529Z,6.50
2018-03-08T18:24:31.020Z,16.23
2018-03-08T18:26:58.520Z,7.70
2018-03-08T18:29:26.023Z,5.97
2018-03-08T18:31:53.538Z,7.00
2018-03-08T18:34:21.060Z,5.70
2018-03-08T18:36:48.561Z,7.97
2018-03-08T18:39:16.869Z,8.03
2018-03-08T18:41:44.340Z,8.37
2018-03-08T18:44:11.885Z,10.20
2018-03-08T18:46:39.353Z,8.93
2018-03-08T18:49:06.852Z,7.47
2018-03-08T18:51:34.560Z,11.63
2018-03-08T18:54:02.059Z,11.43
2018-03-08T18:56:30.696Z,16.23
2018-03-08T18:58:58.140Z,11.70
2018-03-08T19:01:25.678Z,10.27
2018-03-08T19:03:53.214Z,18.30
2018-03-08T19:06:20.792Z,9.60
2018-03-08T19:08:48.301Z,11.63
2018-03-08T19:11:15.867Z,10.77
2018-03-08T19:13:43.476Z,9.83
2018-03-08T19:16:11.005Z,12.60
2018-03-08T19:18:38.497Z,12.70
2018-03-08T19:21:06.020Z,13.30
2018-03-08T19:23:37.610Z,11.30
2018-03-08T19:26:05.140Z,12.80
2018-03-08T19:28:33.570Z,12.10
2018-03-08T19:31:01.276Z,20.70
2018-03-08T19:33:28.825Z,14.40
2018-03-08T19:35:56.436Z,17.73
2018-03-08T19:38:23.960Z,14.70
2018-03-08T19:40:51.440Z,13.93
2018-03-08T19:43:18.936Z,15.80
2018-03-08T19:45:46.560Z,19.77
2018-03-08T19:48:14.120Z,19.60
2018-03-08T19:50:42.787Z,14.57
2018-03-08T19:53:10.297Z,15.60
2018-03-08T19:55:37.800Z,14.40
2018-03-08T19:58:05.326Z,14.60
2018-03-08T20:00:32.853Z,13.40
2018-03-08T20:03:00.455Z,16.23
2018-03-08T20:05:28.050Z,16.73
2018-03-08T20:07:55.591Z,18.17
2018-03-08T20:10:23.876Z,17.80
2018-03-08T20:12:51.360Z,17.53
2018-03-08T20:15:18.835Z,20.20
2018-03-08T20:17:46.401Z,20.87
2018-03-08T20:20:13.941Z,18.03
2018-03-08T20:22:41.588Z,17.57
2018-03-08T20:25:09.206Z,23.60
2018-03-08T20:27:36.710Z,17.37
2018-03-08T20:30:04.284Z,21.50
2018-03-08T20:32:34.528Z,15.90
2018-03-08T20:35:01.985Z,21.30
2018-03-08T20:37:29.533Z,19.37
2018-03-08T20:39:57.113Z,21.87
2018-03-08T20:42:25.465Z,17.80
2018-03-08T20:44:52.990Z,22.63
2018-03-08T20:47:22.609Z,20.67
2018-03-08T20:49:50.094Z,18.00
2018-03-08T20:52:17.615Z,19.73
2018-03-08T20:54:45.103Z,18.63
2018-03-08T20:57:12.621Z,18.27
2018-03-08T20:59:40.150Z,16.60
2018-03-08T21:02:07.656Z,24.00
2018-03-08T21:04:36.191Z,22.93
2018-03-08T21:07:03.903Z,21.33
2018-03-08T21:22:26.544Z,20.70
2018-03-08T21:24:54.023Z,20.87
2018-03-08T21:27:21.579Z,20.77
2018-03-08T21:29:49.139Z,18.97
2018-03-08T21:32:18.066Z,19.10
2018-03-08T21:34:45.565Z,21.03
2018-03-08T21:37:13.107Z,22.70
2018-03-08T21:39:40.611Z,18.57
2018-03-08T21:42:08.140Z,20.47
2018-03-08T21:44:35.651Z,21.30
2018-03-08T21:47:04.400Z,18.80
2018-03-08T21:49:31.955Z,23.33
2018-03-08T21:51:59.467Z,23.70
2018-03-08T21:54:28.303Z,21.70
2018-03-08T21:57:10.130Z,21.53
2018-03-08T21:59:37.657Z,20.07
2018-03-08T22:02:06.277Z,18.70
2018-03-08T22:07:08.165Z,18.57
2018-03-08T22:09:35.640Z,20.90
2018-03-08T22:12:03.271Z,17.70
2018-03-08T22:14:32.329Z,22.63
2018-03-08T22:16:59.872Z,21.10
2018-03-08T22:19:27.384Z,21.23
2018-03-08T22:21:54.881Z,24.63
2018-03-08T22:24:22.429Z,23.50
2018-03-08T22:26:49.947Z,24.10
2018-03-08T22:29:17.416Z,21.17
2018-03-08T22:31:45.041Z,27.20
2018-03-08T22:34:13.068Z,28.47
2018-03-08T22:36:40.704Z,26.10
2018-03-08T22:39:08.175Z,23.27
2018-03-08T22:41:35.852Z,33.30
2018-03-08T22:44:03.327Z,26.73
2018-03-08T22:46:30.871Z,23.37
2018-03-08T22:48:58.381Z,23.60
2018-03-08T22:51:25.891Z,28.60
2018-03-08T22:53:54.980Z,23.03
2018-03-08T22:56:22.563Z,24.23
2018-03-08T22:58:50.128Z,22.17
2018-03-08T23:04:17.967Z,21.30
2018-03-08T23:06:45.647Z,36.17
2018-03-08T23:09:13.234Z,35.40
2018-03-08T23:11:40.749Z,27.30
2018-03-08T23:14:08.249Z,23.83
2018-03-08T23:16:36.047Z,22.73
2018-03-08T23:19:03.610Z,22.00
2018-03-08T23:21:31.100Z,24.30
2018-03-08T23:23:58.639Z,26.00
2018-03-08T23:26:26.236Z,38.70
2018-03-08T23:28:53.756Z,38.77
2018-03-08T23:31:21.239Z,48.63
2018-03-08T23:33:48.717Z,41.90
2018-03-08T23:36:16.193Z,32.03
2018-03-08T23:38:43.752Z,35.77
2018-03-08T23:41:12.908Z,39.70
2018-03-08T23:43:42.148Z,35.33
2018-03-08T23:46:09.659Z,33.80
2018-03-08T23:48:37.223Z,29.43
2018-03-08T23:51:04.831Z,32.97
2018-03-08T23:53:32.298Z,41.97
2018-03-08T23:55:59.822Z,36.20
2018-03-08T23:58:27.337Z,33.20
